Time;durP1;ratioP1;P1;durP2;ratioP2;P2;SDS_P1;SDS_P2;PMS_P1;PMS_P2;Temp;Humidity;BMP_temperature;BMP_pressure;BME280_temperature;BME280_humidity;BME280_pressure;Samples;Min_cycle;Max_cycle;Signal;HPM_P1;HPM_P2
2023/03/23 00:01:13;;;;;;;12.57;4.80;;;;;;;;;;5029090;28;20034;-80
2023/03/23 00:03:40;;;;;;;10.10;3.92;;;;;;;;;;4982096;28;20060;-80
2023/03/23 00:06:16;;;;;;;7.03;3.88;;;;;;;;;;4969481;28;20039;-80
2023/03/23 00:08:49;;;;;;;9.68;4.65;;;;;;;;;;4968400;28;20508;-80
2023/03/23 00:11:23;;;;;;;8.90;4.18;;;;;;;;;;4962430;28;20038;-81
2023/03/23 00:14:24;;;;;;;10.02;3.97;;;;;;;;;;4997767;28;20038;-80
2023/03/23 00:16:51;;;;;;;9.55;4.60;;;;;;;;;;4966509;28;20035;-80
2023/03/23 00:19:20;;;;;;;9.98;4.68;;;;;;;;;;4968595;28;20061;-81
2023/03/23 00:21:53;;;;;;;9.32;4.43;;;;;;;;;;4965816;28;20080;-81
2023/03/23 00:24:45;;;;;;;12.00;5.30;;;;;;;;;;4995477;28;20031;-80
2023/03/23 00:27:14;;;;;;;11.10;6.07;;;;;;;;;;4965597;28;20059;-80
2023/03/23 00:29:41;;;;;;;9.63;4.88;;;;;;;;;;4998471;28;20511;-80
2023/03/23 00:32:13;;;;;;;11.88;5.03;;;;;;;;;;4950786;28;20046;-80
2023/03/23 00:34:42;;;;;;;9.48;5.43;;;;;;;;;;4965428;28;20400;-80
2023/03/23 00:37:10;;;;;;;13.45;5.82;;;;;;;;;;4965599;28;20046;-80
2023/03/23 00:39:38;;;;;;;11.75;6.15;;;;;;;;;;4937459;28;20065;-80
2023/03/23 00:42:05;;;;;;;12.88;6.10;;;;;;;;;;4943153;28;20046;-80
2023/03/23 00:44:34;;;;;;;12.30;6.53;;;;;;;;;;4968017;28;20058;-80
2023/03/23 00:47:01;;;;;;;11.30;6.40;;;;;;;;;;4980651;28;20057;-80
2023/03/23 00:49:27;;;;;;;12.38;6.18;;;;;;;;;;4951590;28;20764;-80
2023/03/23 00:51:57;;;;;;;11.35;7.03;;;;;;;;;;4980494;28;20046;-81
2023/03/23 00:54:25;;;;;;;13.85;6.47;;;;;;;;;;4939298;28;20050;-81
2023/03/23 00:56:57;;;;;;;11.73;6.93;;;;;;;;;;4966374;28;20088;-80
2023/03/23 00:59:23;;;;;;;10.88;6.22;;;;;;;;;;4965885;28;20050;-81
2023/03/23 01:01:51;;;;;;;13.50;6.40;;;;;;;;;;4951477;28;20035;-81
2023/03/23 01:04:23;;;;;;;12.95;7.28;;;;;;;;;;4969194;28;20068;-81
2023/03/23 01:06:51;;;;;;;16.02;7.07;;;;;;;;;;4966872;28;20046;-81
2023/03/23 01:09:23;;;;;;;11.25;6.18;;;;;;;;;;4967899;28;20042;-81
2023/03/23 01:11:55;;;;;;;12.18;6.60;;;;;;;;;;4977698;28;20054;-81
2023/03/23 01:14:23;;;;;;;10.70;6.30;;;;;;;;;;4969886;28;20142;-81
2023/03/23 01:16:49;;;;;;;11.45;6.22;;;;;;;;;;4967302;28;20058;-81
2023/03/23 01:19:15;;;;;;;14.68;6.32;;;;;;;;;;4968039;28;20104;-81
2023/03/23 01:21:41;;;;;;;11.75;6.97;;;;;;;;;;4968768;28;20169;-81
2023/03/23 01:24:07;;;;;;;10.68;6.32;;;;;;;;;;5032031;28;20048;-81
2023/03/23 01:26:33;;;;;;;11.77;6.50;;;;;;;;;;4961013;28;20393;-80
2023/03/23 01:28:59;;;;;;;13.88;7.38;;;;;;;;;;4971294;28;20044;-80
2023/03/23 01:31:27;;;;;;;13.55;7.22;;;;;;;;;;4938830;28;20427;-80
2023/03/23 01:34:43;;;;;;;11.25;7.00;;;;;;;;;;4984378;28;20435;-80
2023/03/23 01:37:36;;;;;;;11.40;6.85;;;;;;;;;;4958727;28;20065;-81
2023/03/23 01:40:04;;;;;;;13.93;6.70;;;;;;;;;;4937623;28;20491;-81
2023/03/23 01:42:34;;;;;;;11.77;7.30;;;;;;;;;;4954556;28;20133;-80
2023/03/23 01:45:19;;;;;;;13.13;7.50;;;;;;;;;;5012831;28;20042;-80
2023/03/23 01:47:51;;;;;;;11.07;6.40;;;;;;;;;;4995352;28;20083;-81
2023/03/23 01:50:20;;;;;;;15.48;6.60;;;;;;;;;;4984497;28;20084;-81
2023/03/23 01:52:47;;;;;;;12.32;7.13;;;;;;;;;;4967952;28;20509;-80
2023/03/23 01:55:13;;;;;;;11.27;6.78;;;;;;;;;;4954788;28;20064;-81
2023/03/23 01:57:45;;;;;;;14.10;7.50;;;;;;;;;;4961460;28;20136;-81
2023/03/23 02:00:15;;;;;;;12.95;6.63;;;;;;;;;;4949952;28;20530;-81
2023/03/23 02:03:08;;;;;;;12.80;7.45;;;;;;;;;;4969290;28;20038;-81
2023/03/23 02:05:40;;;;;;;15.55;8.35;;;;;;;;;;4951761;28;20621;-80
2023/03/23 02:08:24;;;;;;;12.55;7.63;;;;;;;;;;4955089;28;20042;-80
2023/03/23 02:10:51;;;;;;;13.60;7.43;;;;;;;;;;4951854;28;20528;-81
2023/03/23 02:13:17;;;;;;;15.32;7.85;;;;;;;;;;4954185;28;20076;-80
2023/03/23 02:15:51;;;;;;;14.27;6.55;;;;;;;;;;4951662;28;20073;-81
2023/03/23 02:18:43;;;;;;;13.80;7.38;;;;;;;;;;4945276;28;20034;-81
2023/03/23 02:21:35;;;;;;;18.35;7.53;;;;;;;;;;4984406;28;20574;-81
2023/03/23 02:24:27;;;;;;;14.65;6.63;;;;;;;;;;4985634;28;20042;-80
2023/03/23 02:27:05;;;;;;;15.30;7.43;;;;;;;;;;4959123;28;20516;-81
2023/03/23 02:30:21;;;;;;;12.55;6.65;;;;;;;;;;4969293;28;20046;-81
2023/03/23 02:33:08;;;;;;;14.82;7.60;;;;;;;;;;5000289;28;20095;-81
2023/03/23 02:35:54;;;;;;;13.80;7.22;;;;;;;;;;4960137;28;20891;-81
2023/03/23 02:38:35;;;;;;;10.20;6.13;;;;;;;;;;4982827;28;20053;-81
2023/03/23 02:41:02;;;;;;;13.60;6.93;;;;;;;;;;4966813;28;20104;-81
2023/03/23 02:43:36;;;;;;;14.52;7.28;;;;;;;;;;4935659;28;20897;-81
2023/03/23 02:46:07;;;;;;;13.13;6.88;;;;;;;;;;4984996;28;20046;-81
2023/03/23 02:49:02;;;;;;;12.25;7.50;;;;;;;;;;4982822;28;20076;-81
2023/03/23 02:51:31;;;;;;;11.77;7.03;;;;;;;;;;4967193;28;20107;-81
2023/03/23 02:54:25;;;;;;;13.15;7.80;;;;;;;;;;4958016;28;20113;-81
2023/03/23 02:56:57;;;;;;;16.15;7.43;;;;;;;;;;4942118;28;20047;-81
2023/03/23 02:59:32;;;;;;;10.85;6.95;;;;;;;;;;4956496;28;20103;-81
2023/03/23 03:02:11;;;;;;;12.60;6.82;;;;;;;;;;4947408;28;20034;-81
2023/03/23 03:04:54;;;;;;;11.88;7.60;;;;;;;;;;4949860;28;20047;-80
2023/03/23 03:07:28;;;;;;;13.27;7.32;;;;;;;;;;4956011;28;20041;-80
2023/03/23 03:10:04;;;;;;;11.05;6.53;;;;;;;;;;4956626;28;20081;-81
2023/03/23 03:12:45;;;;;;;12.63;6.55;;;;;;;;;;4968605;28;20042;-81
2023/03/23 03:15:25;;;;;;;13.18;7.13;;;;;;;;;;4994200;28;20045;-81
2023/03/23 03:17:59;;;;;;;11.10;6.90;;;;;;;;;;4955693;28;20057;-81
2023/03/23 03:20:27;;;;;;;16.23;7.03;;;;;;;;;;4978355;28;20046;-81
2023/03/23 03:22:56;;;;;;;11.45;6.85;;;;;;;;;;4985159;28;20030;-80
2023/03/23 03:25:27;;;;;;;11.77;6.78;;;;;;;;;;4939755;28;20057;-80
2023/03/23 03:27:59;;;;;;;12.95;7.05;;;;;;;;;;4970557;28;20521;-81
2023/03/23 03:30:40;;;;;;;12.95;6.90;;;;;;;;;;4978275;28;20038;-81
2023/03/23 03:33:07;;;;;;;16.08;7.00;;;;;;;;;;4955718;28;20042;-80
2023/03/23 03:35:36;;;;;;;12.10;7.05;;;;;;;;;;4942809;28;20042;-81
2023/03/23 03:38:09;;;;;;;10.95;6.57;;;;;;;;;;4969516;28;20038;-81
2023/03/23 03:40:38;;;;;;;10.82;6.55;;;;;;;;;;4993674;28;20077;-81
2023/03/23 03:43:06;;;;;;;13.00;7.72;;;;;;;;;;4952394;28;20085;-80
2023/03/23 03:45:37;;;;;;;11.30;6.60;;;;;;;;;;5002615;28;20733;-81
2023/03/23 03:48:03;;;;;;;10.77;6.55;;;;;;;;;;4953908;28;20133;-81
2023/03/23 03:50:32;;;;;;;11.95;7.10;;;;;;;;;;4954822;28;20641;-81
2023/03/23 03:52:59;;;;;;;11.32;6.78;;;;;;;;;;4954091;28;20053;-81
2023/03/23 03:55:27;;;;;;;12.75;6.78;;;;;;;;;;4962055;28;20079;-81
2023/03/23 03:57:58;;;;;;;12.07;6.97;;;;;;;;;;4945875;28;20665;-81
2023/03/23 04:00:47;;;;;;;10.43;6.40;;;;;;;;;;4973727;28;20120;-81
2023/03/23 04:03:40;;;;;;;12.40;6.95;;;;;;;;;;4970300;28;20657;-81
2023/03/23 04:06:37;;;;;;;13.13;7.18;;;;;;;;;;4979431;28;20704;-81
2023/03/23 04:09:06;;;;;;;12.35;7.32;;;;;;;;;;4986215;28;20201;-81
2023/03/23 04:11:33;;;;;;;12.55;7.32;;;;;;;;;;4939107;28;20102;-81
2023/03/23 04:14:33;;;;;;;11.80;7.32;;;;;;;;;;4980606;28;20531;-81
2023/03/23 04:17:06;;;;;;;13.82;7.85;;;;;;;;;;4956223;28;20167;-81
2023/03/23 04:19:39;;;;;;;14.88;7.82;;;;;;;;;;4985894;28;20171;-81
2023/03/23 04:22:11;;;;;;;14.25;8.27;;;;;;;;;;4969976;28;20038;-81
2023/03/23 04:24:43;;;;;;;13.85;7.80;;;;;;;;;;4963745;28;21646;-81
2023/03/23 04:27:19;;;;;;;13.88;7.38;;;;;;;;;;4965550;28;20151;-81
2023/03/23 04:29:48;;;;;;;14.52;7.68;;;;;;;;;;4951903;28;20103;-80
2023/03/23 04:32:41;;;;;;;12.02;7.82;;;;;;;;;;4972604;28;20476;-80
2023/03/23 04:35:13;;;;;;;14.20;7.85;;;;;;;;;;4966395;28;20084;-80
2023/03/23 04:37:48;;;;;;;12.15;7.95;;;;;;;;;;4953892;28;20038;-80
2023/03/23 04:40:17;;;;;;;14.38;9.20;;;;;;;;;;4986086;28;20151;-80
2023/03/23 04:43:05;;;;;;;15.40;7.70;;;;;;;;;;4987831;28;20111;-81
2023/03/23 04:45:56;;;;;;;14.55;8.05;;;;;;;;;;4954304;28;20042;-81
2023/03/23 04:48:27;;;;;;;15.07;7.30;;;;;;;;;;4971286;28;20046;-81
2023/03/23 04:51:19;;;;;;;13.63;7.60;;;;;;;;;;4965712;28;20053;-80
2023/03/23 04:53:51;;;;;;;12.52;7.50;;;;;;;;;;4984999;28;20053;-80
2023/03/23 04:56:19;;;;;;;17.05;7.88;;;;;;;;;;4953223;28;20034;-80
2023/03/23 05:02:12;;;;;;;14.43;7.90;;;;;;;;;;4934879;28;20421;-80
2023/03/23 05:04:41;;;;;;;14.13;8.40;;;;;;;;;;4919681;28;20051;-81
2023/03/23 05:07:11;;;;;;;14.20;7.95;;;;;;;;;;4995307;28;20051;-81
2023/03/23 05:09:49;;;;;;;13.70;8.63;;;;;;;;;;4992612;28;20437;-80
2023/03/23 05:12:19;;;;;;;20.52;8.70;;;;;;;;;;4914295;28;20082;-80
2023/03/23 05:15:14;;;;;;;14.35;7.90;;;;;;;;;;4935946;28;20098;-80
2023/03/23 05:17:43;;;;;;;15.40;8.40;;;;;;;;;;4930090;28;20404;-81
2023/03/23 05:20:18;;;;;;;11.50;7.65;;;;;;;;;;4912386;28;20066;-81
2023/03/23 05:22:49;;;;;;;17.00;8.25;;;;;;;;;;4920694;28;20055;-81
2023/03/23 05:25:19;;;;;;;13.45;8.10;;;;;;;;;;4924727;28;20047;-81
2023/03/23 05:27:52;;;;;;;12.73;7.85;;;;;;;;;;4917514;28;20050;-80
2023/03/23 05:30:48;;;;;;;15.70;8.38;;;;;;;;;;4919588;28;20040;-80
2023/03/23 05:33:17;;;;;;;13.45;7.57;;;;;;;;;;4908803;28;20044;-80
2023/03/23 05:36:00;;;;;;;11.27;7.53;;;;;;;;;;4987012;28;20062;-80
2023/03/23 05:38:45;;;;;;;13.65;8.20;;;;;;;;;;4961481;28;20049;-80
2023/03/23 05:41:16;;;;;;;16.50;8.70;;;;;;;;;;4960907;28;20046;-81
2023/03/23 05:43:43;;;;;;;14.00;8.07;;;;;;;;;;4936448;28;20081;-81
2023/03/23 05:46:19;;;;;;;12.00;7.63;;;;;;;;;;4954038;28;20133;-80
2023/03/23 05:48:47;;;;;;;12.90;7.72;;;;;;;;;;4950336;28;20050;-81
2023/03/23 05:51:18;;;;;;;11.85;7.40;;;;;;;;;;4937223;28;20031;-81
2023/03/23 05:53:45;;;;;;;12.43;7.15;;;;;;;;;;4950579;28;20056;-81
2023/03/23 05:56:15;;;;;;;11.02;6.70;;;;;;;;;;4953708;28;20099;-81
2023/03/23 05:58:59;;;;;;;10.52;6.72;;;;;;;;;;4956781;28;20050;-81
2023/03/23 06:01:27;;;;;;;10.65;6.63;;;;;;;;;;4948057;28;20034;-81
2023/03/23 06:03:58;;;;;;;9.93;6.22;;;;;;;;;;4983154;28;20042;-81
2023/03/23 06:06:56;;;;;;;12.80;6.25;;;;;;;;;;4971047;28;20058;-81
2023/03/23 06:09:23;;;;;;;9.52;6.10;;;;;;;;;;4953580;28;20042;-80
2023/03/23 06:12:06;;;;;;;12.02;5.93;;;;;;;;;;4955625;28;20084;-80
2023/03/23 06:14:43;;;;;;;10.32;5.55;;;;;;;;;;4984016;28;20042;-80
2023/03/23 06:17:17;;;;;;;11.35;6.05;;;;;;;;;;4954498;28;20095;-80
2023/03/23 06:19:46;;;;;;;12.13;5.43;;;;;;;;;;4964097;28;20561;-80
2023/03/23 06:22:15;;;;;;;8.75;5.68;;;;;;;;;;4953865;28;20038;-80
2023/03/23 06:25:01;;;;;;;9.35;5.78;;;;;;;;;;4984170;28;20504;-80
2023/03/23 06:27:35;;;;;;;10.20;5.07;;;;;;;;;;4951726;28;20066;-83
2023/03/23 06:30:08;;;;;;;10.15;5.20;;;;;;;;;;4952738;28;20137;-80
2023/03/23 06:32:39;;;;;;;9.70;5.25;;;;;;;;;;4982208;28;20042;-80
2023/03/23 06:35:51;;;;;;;10.23;5.22;;;;;;;;;;4980657;28;20042;-79
2023/03/23 06:38:49;;;;;;;9.60;4.90;;;;;;;;;;4999388;28;20041;-81
2023/03/23 06:41:19;;;;;;;13.73;5.10;;;;;;;;;;4989914;28;20038;-81
2023/03/23 06:43:46;;;;;;;9.00;4.90;;;;;;;;;;4938274;28;20058;-80
2023/03/23 06:46:37;;;;;;;7.70;4.53;;;;;;;;;;4977370;28;20475;-81
2023/03/23 06:49:17;;;;;;;11.20;4.55;;;;;;;;;;4969779;28;20129;-80
2023/03/23 06:51:51;;;;;;;9.60;4.78;;;;;;;;;;4946547;28;20064;-81
2023/03/23 06:54:26;;;;;;;8.98;4.40;;;;;;;;;;4935805;28;20070;-80
2023/03/23 06:56:59;;;;;;;8.82;4.57;;;;;;;;;;4958628;28;20072;-81
2023/03/23 06:59:26;;;;;;;8.55;4.57;;;;;;;;;;4953029;28;20423;-81
2023/03/23 07:01:57;;;;;;;12.60;4.63;;;;;;;;;;4968869;28;20043;-81
2023/03/23 07:04:28;;;;;;;9.50;4.40;;;;;;;;;;4950528;28;20044;-81
2023/03/23 07:07:07;;;;;;;8.05;4.35;;;;;;;;;;4951633;28;20042;-81
2023/03/23 07:09:42;;;;;;;10.43;4.70;;;;;;;;;;4935053;28;20129;-81
2023/03/23 07:12:15;;;;;;;7.72;4.22;;;;;;;;;;4936569;28;20045;-81
2023/03/23 07:14:47;;;;;;;8.68;4.50;;;;;;;;;;5047948;28;20053;-81
2023/03/23 07:17:13;;;;;;;9.80;4.45;;;;;;;;;;4982163;28;20050;-81
2023/03/23 07:19:51;;;;;;;7.53;4.53;;;;;;;;;;4981087;28;20046;-81
2023/03/23 07:22:19;;;;;;;8.35;3.95;;;;;;;;;;4935092;28;20049;-81
2023/03/23 07:24:53;;;;;;;9.85;4.05;;;;;;;;;;4970686;28;20046;-81
2023/03/23 07:27:27;;;;;;;12.15;4.90;;;;;;;;;;4950420;28;20035;-81
2023/03/23 07:29:57;;;;;;;8.45;4.50;;;;;;;;;;4978345;28;20050;-81
2023/03/23 07:32:27;;;;;;;7.32;3.70;;;;;;;;;;4943242;28;20035;-81
2023/03/23 07:34:59;;;;;;;9.55;4.03;;;;;;;;;;4958552;28;20050;-81
2023/03/23 07:37:43;;;;;;;7.35;4.35;;;;;;;;;;4964003;28;20049;-81
2023/03/23 07:40:18;;;;;;;5.85;3.78;;;;;;;;;;4961164;28;20091;-80
2023/03/23 07:42:55;;;;;;;7.90;4.13;;;;;;;;;;4949182;28;20034;-82
2023/03/23 07:45:53;;;;;;;8.68;3.75;;;;;;;;;;4984684;28;20046;-81
2023/03/23 07:48:23;;;;;;;6.32;3.67;;;;;;;;;;5031133;28;20453;-81
2023/03/23 07:50:57;;;;;;;8.25;3.67;;;;;;;;;;4964105;28;20038;-81
2023/03/23 07:53:25;;;;;;;8.38;3.25;;;;;;;;;;4950501;28;20525;-81
2023/03/23 07:56:06;;;;;;;8.77;4.03;;;;;;;;;;4949796;28;20095;-81
2023/03/23 07:58:49;;;;;;;8.55;3.42;;;;;;;;;;4965734;28;20034;-81
2023/03/23 08:01:23;;;;;;;9.55;4.40;;;;;;;;;;4980157;28;20030;-81
2023/03/23 08:04:09;;;;;;;7.32;3.45;;;;;;;;;;4968831;28;20088;-81
2023/03/23 08:06:49;;;;;;;7.15;3.70;;;;;;;;;;4951372;28;20069;-81
2023/03/23 08:09:53;;;;;;;6.35;4.10;;;;;;;;;;4971432;28;20026;-81
2023/03/23 08:12:35;;;;;;;6.82;4.10;;;;;;;;;;4951667;28;20039;-82
2023/03/23 08:15:26;;;;;;;7.90;5.15;;;;;;;;;;4957769;28;20049;-81
2023/03/23 08:18:15;;;;;;;8.00;4.72;;;;;;;;;;4925894;28;20083;-81
2023/03/23 08:20:45;;;;;;;6.90;4.80;;;;;;;;;;4904400;28;20142;-81
2023/03/23 08:23:27;;;;;;;9.00;4.53;;;;;;;;;;4928451;28;20089;-81
2023/03/23 08:26:15;;;;;;;7.15;5.15;;;;;;;;;;4929001;28;20039;-81
2023/03/23 08:28:47;;;;;;;7.20;4.47;;;;;;;;;;4932185;28;20051;-82
2023/03/23 08:31:39;;;;;;;6.90;4.47;;;;;;;;;;4894290;28;20541;-83
2023/03/23 08:34:21;;;;;;;7.13;3.30;;;;;;;;;;4894859;28;20051;-82
2023/03/23 08:37:11;;;;;;;5.65;2.30;;;;;;;;;;4877023;28;20083;-83
2023/03/23 08:40:07;;;;;;;6.00;1.75;;;;;;;;;;4894364;28;20062;-82
2023/03/23 08:42:52;;;;;;;4.97;1.58;;;;;;;;;;4869283;28;20052;-82
2023/03/23 08:45:27;;;;;;;4.65;1.60;;;;;;;;;;4900460;28;20040;-83
2023/03/23 08:48:13;;;;;;;3.95;2.00;;;;;;;;;;4960738;28;20111;-82
2023/03/23 08:51:00;;;;;;;4.82;1.75;;;;;;;;;;4958974;28;20046;-83
2023/03/23 08:53:52;;;;;;;4.85;1.83;;;;;;;;;;4895975;28;20051;-82
2023/03/23 08:56:46;;;;;;;4.85;1.75;;;;;;;;;;4895062;28;20056;-82
2023/03/23 08:59:31;;;;;;;8.52;2.05;;;;;;;;;;4896059;28;20052;-82
2023/03/23 09:02:06;;;;;;;4.72;1.90;;;;;;;;;;4878654;28;20052;-82
2023/03/23 09:04:57;;;;;;;4.10;1.80;;;;;;;;;;4896507;28;20549;-82
2023/03/23 09:07:31;;;;;;;4.65;1.90;;;;;;;;;;4880249;28;20059;-82
2023/03/23 09:09:57;;;;;;;6.47;2.53;;;;;;;;;;4964109;28;20051;-82
2023/03/23 09:12:23;;;;;;;5.00;2.40;;;;;;;;;;4968849;28;20038;-82
2023/03/23 09:14:55;;;;;;;5.72;2.70;;;;;;;;;;4999418;28;20049;-82
2023/03/23 09:17:21;;;;;;;7.57;2.58;;;;;;;;;;4964321;28;20050;-82
2023/03/23 09:19:50;;;;;;;10.52;2.60;;;;;;;;;;4967276;28;20031;-83
2023/03/23 09:22:23;;;;;;;6.60;2.30;;;;;;;;;;4964871;28;20046;-82
2023/03/23 09:24:58;;;;;;;9.32;2.65;;;;;;;;;;4979711;28;20450;-81
2023/03/23 09:27:25;;;;;;;9.13;2.60;;;;;;;;;;4966404;28;20047;-81
2023/03/23 09:30:18;;;;;;;10.25;2.25;;;;;;;;;;4965575;28;20046;-80
2023/03/23 09:32:47;;;;;;;6.47;1.92;;;;;;;;;;4942866;28;20144;-80
2023/03/23 09:35:21;;;;;;;5.90;1.92;;;;;;;;;;4967178;28;20079;-80
2023/03/23 09:38:13;;;;;;;6.45;2.00;;;;;;;;;;4982266;28;20488;-81
2023/03/23 09:41:32;;;;;;;5.97;1.67;;;;;;;;;;4982331;28;20131;-80
2023/03/23 09:43:59;;;;;;;10.57;2.00;;;;;;;;;;4965006;28;20145;-80
2023/03/23 09:46:34;;;;;;;8.00;1.52;;;;;;;;;;4949079;28;20121;-80
2023/03/23 09:49:10;;;;;;;8.63;2.05;;;;;;;;;;4963043;28;20610;-80
2023/03/23 09:51:49;;;;;;;6.35;1.58;;;;;;;;;;5000341;28;20050;-80
2023/03/23 09:54:40;;;;;;;8.00;1.77;;;;;;;;;;4949194;28;20050;-80
2023/03/23 09:57:27;;;;;;;8.70;1.60;;;;;;;;;;4936999;28;20909;-81
2023/03/23 10:00:15;;;;;;;10.43;2.05;;;;;;;;;;4968033;28;20092;-80
2023/03/23 10:02:48;;;;;;;13.68;1.45;;;;;;;;;;4964898;28;20038;-80
2023/03/23 10:05:35;;;;;;;3.90;1.45;;;;;;;;;;4976883;28;20042;-80
2023/03/23 10:08:19;;;;;;;5.75;1.73;;;;;;;;;;4960576;28;20049;-80
2023/03/23 10:10:48;;;;;;;4.80;1.20;;;;;;;;;;4963940;28;20043;-80
2023/03/23 10:13:33;;;;;;;7.40;1.67;;;;;;;;;;4979443;28;20038;-81
2023/03/23 10:16:03;;;;;;;11.55;1.73;;;;;;;;;;4963426;28;20173;-81
2023/03/23 10:18:44;;;;;;;11.57;1.98;;;;;;;;;;4978040;28;20042;-81
2023/03/23 10:21:17;;;;;;;14.95;2.88;;;;;;;;;;4953734;28;20377;-80
2023/03/23 10:24:16;;;;;;;6.18;1.50;;;;;;;;;;4982588;28;20041;-81
2023/03/23 10:27:06;;;;;;;7.88;1.50;;;;;;;;;;4964394;28;20057;-81
2023/03/23 10:30:23;;;;;;;8.75;1.95;;;;;;;;;;4956808;28;20035;-82
2023/03/23 10:33:38;;;;;;;9.02;2.50;;;;;;;;;;4957417;28;20030;-82
2023/03/23 10:36:10;;;;;;;7.00;1.70;;;;;;;;;;5007706;28;20443;-82
2023/03/23 10:38:45;;;;;;;7.05;1.60;;;;;;;;;;4988741;28;20049;-82
2023/03/23 10:41:15;;;;;;;11.45;1.90;;;;;;;;;;5019439;28;20037;-82
2023/03/23 10:43:45;;;;;;;6.03;1.50;;;;;;;;;;5007456;28;20049;-82
2023/03/23 10:46:47;;;;;;;10.00;1.95;;;;;;;;;;5006870;28;20045;-81
2023/03/23 10:49:25;;;;;;;10.90;2.40;;;;;;;;;;5013400;28;20045;-81
2023/03/23 10:52:28;;;;;;;10.32;1.80;;;;;;;;;;4985679;28;20052;-81
2023/03/23 10:54:56;;;;;;;8.63;1.73;;;;;;;;;;4987243;28;20590;-82
2023/03/23 10:57:29;;;;;;;9.93;1.60;;;;;;;;;;5002247;28;20049;-82
2023/03/23 11:00:01;;;;;;;10.63;2.58;;;;;;;;;;5003584;28;20056;-82
2023/03/23 11:02:28;;;;;;;11.73;1.92;;;;;;;;;;5003858;28;20585;-82
2023/03/23 11:05:04;;;;;;;6.25;1.70;;;;;;;;;;5004574;28;20188;-81
2023/03/23 11:07:37;;;;;;;6.57;1.70;;;;;;;;;;5006484;28;20136;-82
2023/03/23 11:10:20;;;;;;;7.90;2.50;;;;;;;;;;5007298;28;20172;-82
2023/03/23 11:13:00;;;;;;;9.00;1.98;;;;;;;;;;4950425;28;20042;-82
2023/03/23 11:15:32;;;;;;;7.72;1.52;;;;;;;;;;4953389;28;20093;-82
2023/03/23 11:18:02;;;;;;;10.80;1.90;;;;;;;;;;4967372;28;20096;-81
2023/03/23 11:20:35;;;;;;;7.28;1.48;;;;;;;;;;4966994;28;20080;-81
2023/03/23 11:23:08;;;;;;;9.15;2.00;;;;;;;;;;4954212;28;20035;-81
2023/03/23 11:26:16;;;;;;;9.07;1.48;;;;;;;;;;5001691;28;20034;-82
2023/03/23 11:28:51;;;;;;;8.05;1.55;;;;;;;;;;4936224;28;20034;-82
2023/03/23 11:31:26;;;;;;;11.13;1.83;;;;;;;;;;4984810;28;20070;-82
2023/03/23 11:34:01;;;;;;;8.15;1.65;;;;;;;;;;4976532;28;20046;-82
2023/03/23 11:36:53;;;;;;;10.77;1.73;;;;;;;;;;4950918;28;20045;-82
2023/03/23 11:39:29;;;;;;;8.73;1.48;;;;;;;;;;5008191;28;20049;-82
2023/03/23 11:42:00;;;;;;;9.57;2.88;;;;;;;;;;5022665;28;20053;-82
2023/03/23 11:44:42;;;;;;;8.98;1.77;;;;;;;;;;5031050;28;20406;-82
2023/03/23 11:47:20;;;;;;;8.82;1.92;;;;;;;;;;5026110;28;20066;-82
2023/03/23 11:50:20;;;;;;;19.30;2.67;;;;;;;;;;5027903;28;20132;-82
2023/03/23 11:53:15;;;;;;;11.07;2.00;;;;;;;;;;5008166;28;20041;-82
2023/03/23 11:55:45;;;;;;;8.80;1.52;;;;;;;;;;5024088;28;20044;-82
2023/03/23 11:58:14;;;;;;;12.30;2.03;;;;;;;;;;5018362;28;20041;-82
2023/03/23 12:01:04;;;;;;;5.95;1.70;;;;;;;;;;5008162;28;20048;-82
2023/03/23 12:03:53;;;;;;;11.10;1.95;;;;;;;;;;5009263;28;20474;-82
2023/03/23 12:06:27;;;;;;;9.63;2.13;;;;;;;;;;5027605;28;20132;-82
2023/03/23 12:09:40;;;;;;;9.32;2.53;;;;;;;;;;5025543;28;20049;-82
2023/03/23 12:12:23;;;;;;;6.53;2.03;;;;;;;;;;4895904;29;20058;-82
2023/03/23 12:15:16;;;;;;;8.35;2.72;;;;;;;;;;4926078;28;20698;-82
2023/03/23 12:18:07;;;;;;;10.88;2.53;;;;;;;;;;4952582;28;20073;-82
2023/03/23 12:20:49;;;;;;;10.85;2.47;;;;;;;;;;4947884;28;20057;-82
2023/03/23 12:23:21;;;;;;;10.25;2.63;;;;;;;;;;4953508;28;20062;-82
2023/03/23 12:26:13;;;;;;;9.63;3.58;;;;;;;;;;4981533;28;20038;-81
2023/03/23 12:29:13;;;;;;;9.35;2.60;;;;;;;;;;4980708;28;20066;-82
2023/03/23 12:31:52;;;;;;;7.72;2.13;;;;;;;;;;4963518;28;20193;-82
2023/03/23 12:34:22;;;;;;;12.25;3.05;;;;;;;;;;4966442;28;20046;-82
2023/03/23 12:37:10;;;;;;;11.57;2.78;;;;;;;;;;4965636;28;20086;-82
2023/03/23 12:40:03;;;;;;;11.27;2.60;;;;;;;;;;4975780;28;20456;-82
2023/03/23 12:42:55;;;;;;;14.40;3.22;;;;;;;;;;4960920;28;20080;-82
2023/03/23 12:45:58;;;;;;;13.43;2.92;;;;;;;;;;4962373;28;20551;-81
2023/03/23 12:48:32;;;;;;;10.23;2.95;;;;;;;;;;4983040;28;20135;-83
2023/03/23 12:51:05;;;;;;;9.23;3.05;;;;;;;;;;4980934;28;20046;-82
2023/03/23 12:53:38;;;;;;;8.07;2.70;;;;;;;;;;4999004;28;20042;-82
2023/03/23 12:56:24;;;;;;;10.65;3.00;;;;;;;;;;4966035;28;20119;-82
2023/03/23 12:59:03;;;;;;;9.77;2.90;;;;;;;;;;4959299;28;20062;-82
2023/03/23 13:01:42;;;;;;;10.75;3.20;;;;;;;;;;4962640;28;20634;-82
2023/03/23 13:04:23;;;;;;;9.20;2.70;;;;;;;;;;4935535;28;20129;-83
2023/03/23 13:06:49;;;;;;;10.05;2.90;;;;;;;;;;4985606;28;20058;-82
2023/03/23 13:09:54;;;;;;;12.02;2.78;;;;;;;;;;4974689;28;20042;-82
2023/03/23 13:12:24;;;;;;;18.08;3.85;;;;;;;;;;4967296;28;20030;-82
2023/03/23 13:15:33;;;;;;;9.30;2.50;;;;;;;;;;4951250;28;20099;-82
2023/03/23 13:18:07;;;;;;;6.22;2.38;;;;;;;;;;4999322;28;20054;-81
2023/03/23 13:20:49;;;;;;;9.10;2.88;;;;;;;;;;4994469;28;20043;-82
2023/03/23 13:23:33;;;;;;;16.33;3.00;;;;;;;;;;4977421;28;20046;-81
2023/03/23 13:26:26;;;;;;;7.72;2.63;;;;;;;;;;4990180;28;20042;-82
2023/03/23 13:28:57;;;;;;;12.60;2.75;;;;;;;;;;4949733;28;20483;-81
2023/03/23 13:31:30;;;;;;;9.18;2.70;;;;;;;;;;4964518;28;20041;-82
2023/03/23 13:34:15;;;;;;;5.75;2.92;;;;;;;;;;4962631;28;20068;-82
2023/03/23 13:36:45;;;;;;;11.02;2.60;;;;;;;;;;4967093;28;20129;-82
2023/03/23 13:39:29;;;;;;;7.57;2.67;;;;;;;;;;4962453;28;20387;-81
2023/03/23 13:42:25;;;;;;;7.57;2.30;;;;;;;;;;4957055;28;20049;-82
2023/03/23 13:44:51;;;;;;;7.78;2.33;;;;;;;;;;4956600;28;20062;-81
2023/03/23 13:47:23;;;;;;;6.10;2.38;;;;;;;;;;4948852;28;20073;-82
2023/03/23 13:50:19;;;;;;;9.57;2.13;;;;;;;;;;4950196;28;20396;-81
2023/03/23 13:52:53;;;;;;;9.20;2.33;;;;;;;;;;4953190;28;20046;-81
2023/03/23 13:55:41;;;;;;;10.93;2.50;;;;;;;;;;4981436;28;20401;-81
2023/03/23 13:58:12;;;;;;;8.30;2.10;;;;;;;;;;4961654;28;20134;-82
2023/03/23 14:00:50;;;;;;;8.68;2.10;;;;;;;;;;4994591;28;20117;-81
2023/03/23 14:03:20;;;;;;;4.85;1.67;;;;;;;;;;4947768;28;20913;-82
2023/03/23 14:06:00;;;;;;;4.40;2.03;;;;;;;;;;4942463;28;20052;-82
2023/03/23 14:08:33;;;;;;;2.60;0.80;;;;;;;;;;4961904;28;20053;-81
2023/03/23 14:11:14;;;;;;;6.00;1.40;;;;;;;;;;4968328;28;20042;-81
2023/03/23 14:13:50;;;;;;;6.15;1.05;;;;;;;;;;4963667;28;20042;-82
2023/03/23 14:16:31;;;;;;;6.47;1.10;;;;;;;;;;4978223;28;20100;-81
2023/03/23 14:19:33;;;;;;;2.97;0.93;;;;;;;;;;4981899;28;20093;-81
2023/03/23 14:22:01;;;;;;;4.05;1.05;;;;;;;;;;4972214;28;20034;-81
2023/03/23 14:24:31;;;;;;;3.47;1.05;;;;;;;;;;4966706;28;20099;-81
2023/03/23 14:27:09;;;;;;;2.47;0.77;;;;;;;;;;4952009;28;20466;-81
2023/03/23 14:29:35;;;;;;;2.55;1.00;;;;;;;;;;4966764;28;20496;-81
2023/03/23 14:32:17;;;;;;;4.32;1.00;;;;;;;;;;4963313;28;20082;-81
2023/03/23 14:34:46;;;;;;;4.30;1.20;;;;;;;;;;4996193;28;20084;-81
2023/03/23 14:37:15;;;;;;;2.40;0.93;;;;;;;;;;4967486;28;20038;-81
2023/03/23 14:39:46;;;;;;;3.17;0.90;;;;;;;;;;4967845;28;20553;-82
2023/03/23 14:42:17;;;;;;;3.70;1.17;;;;;;;;;;4973685;28;20092;-81
2023/03/23 14:44:46;;;;;;;4.93;1.85;;;;;;;;;;4966610;28;20031;-81
2023/03/23 14:47:19;;;;;;;2.80;0.93;;;;;;;;;;4963480;28;20492;-81
2023/03/23 14:49:57;;;;;;;3.58;1.27;;;;;;;;;;4976076;28;20049;-82
2023/03/23 14:52:49;;;;;;;4.13;1.70;;;;;;;;;;4969559;28;20145;-82
2023/03/23 14:55:21;;;;;;;4.68;1.02;;;;;;;;;;4965329;28;20559;-81
2023/03/23 14:57:49;;;;;;;3.40;1.20;;;;;;;;;;4966887;28;20038;-81
2023/03/23 15:00:38;;;;;;;8.52;1.73;;;;;;;;;;4996323;28;20048;-81
2023/03/23 15:03:10;;;;;;;3.17;1.15;;;;;;;;;;4948740;28;20047;-81
2023/03/23 15:05:46;;;;;;;4.90;1.30;;;;;;;;;;4995272;28;20366;-81
2023/03/23 15:08:37;;;;;;;3.70;1.05;;;;;;;;;;4968942;28;20046;-81
2023/03/23 15:11:33;;;;;;;3.80;1.23;;;;;;;;;;4989862;28;20046;-81
2023/03/23 15:14:07;;;;;;;5.28;1.45;;;;;;;;;;4953430;28;20069;-82
2023/03/23 15:16:34;;;;;;;4.88;1.70;;;;;;;;;;4966541;28;20136;-81
2023/03/23 15:19:36;;;;;;;7.55;2.05;;;;;;;;;;4975437;28;20041;-81
2023/03/23 15:22:22;;;;;;;5.57;1.48;;;;;;;;;;4984217;28;20484;-82
2023/03/23 15:24:52;;;;;;;4.28;1.50;;;;;;;;;;4972601;28;20499;-82
2023/03/23 15:27:31;;;;;;;3.85;1.45;;;;;;;;;;4969031;28;20050;-81
2023/03/23 15:30:15;;;;;;;5.15;1.83;;;;;;;;;;4959501;28;20042;-81
2023/03/23 15:32:45;;;;;;;9.63;1.60;;;;;;;;;;4966726;28;20038;-81
2023/03/23 15:35:15;;;;;;;3.00;1.38;;;;;;;;;;4973206;28;20057;-81
2023/03/23 15:37:47;;;;;;;7.30;2.05;;;;;;;;;;4954170;28;20531;-82
2023/03/23 15:40:19;;;;;;;4.13;1.35;;;;;;;;;;4979977;28;20080;-81
2023/03/23 15:42:45;;;;;;;5.38;1.83;;;;;;;;;;4963811;28;20130;-81